createdAt,value
2022-11-24T00:01:09.215Z,7.90
2022-11-24T00:03:36.059Z,7.80
2022-11-24T00:06:04.986Z,7.70
2022-11-24T00:08:31.671Z,7.70
2022-11-24T00:11:02.424Z,7.60
2022-11-24T00:13:29.170Z,7.50
2022-11-24T00:15:55.852Z,7.50
2022-11-24T00:18:22.574Z,7.60
2022-11-24T00:20:52.707Z,7.50
2022-11-24T00:23:19.489Z,7.60
2022-11-24T00:25:46.196Z,7.50
2022-11-24T00:28:12.861Z,7.50
2022-11-24T00:30:39.578Z,7.40
2022-11-24T00:33:06.289Z,7.40
2022-11-24T00:35:33.017Z,7.40
2022-11-24T00:37:59.726Z,7.30
2022-11-24T00:40:28.641Z,7.30
2022-11-24T00:42:58.879Z,7.20
2022-11-24T00:45:25.555Z,7.20
2022-11-24T00:47:52.226Z,7.20
2022-11-24T00:50:18.999Z,7.20
2022-11-24T00:52:45.662Z,7.20
2022-11-24T00:55:12.324Z,7.20
2022-11-24T00:57:38.974Z,7.20
2022-11-24T01:00:06.272Z,7.20
2022-11-24T01:02:33.041Z,7.20
2022-11-24T01:04:59.732Z,7.20
2022-11-24T01:07:26.482Z,7.10
2022-11-24T01:09:53.186Z,7.20
2022-11-24T01:12:19.854Z,7.20
2022-11-24T01:14:46.538Z,7.20
2022-11-24T01:17:13.220Z,7.20
2022-11-24T01:19:39.922Z,7.20
2022-11-24T01:22:06.609Z,7.20
2022-11-24T01:24:33.641Z,7.20
2022-11-24T01:27:00.528Z,7.20
2022-11-24T01:29:27.242Z,7.10
2022-11-24T01:31:53.919Z,7.00
2022-11-24T01:34:20.618Z,6.90
2022-11-24T01:36:47.307Z,6.80
2022-11-24T01:39:14.148Z,6.70
2022-11-24T01:41:40.835Z,6.60
2022-11-24T01:44:24.202Z,6.60
2022-11-24T01:46:52.635Z,6.50
2022-11-24T01:49:24.311Z,6.40
2022-11-24T01:51:52.417Z,6.40
2022-11-24T01:54:20.633Z,6.40
2022-11-24T01:56:48.218Z,6.40
2022-11-24T01:59:14.921Z,6.30
2022-11-24T02:01:41.662Z,6.30
2022-11-24T02:04:09.540Z,6.30
2022-11-24T02:06:36.243Z,6.30
2022-11-24T02:09:02.900Z,6.30
2022-11-24T02:11:31.099Z,6.40
2022-11-24T02:13:57.795Z,6.30
2022-11-24T02:16:24.492Z,6.40
2022-11-24T02:18:51.219Z,6.40
2022-11-24T02:21:17.979Z,6.40
2022-11-24T02:24:05.356Z,6.40
2022-11-24T02:26:45.452Z,6.50
2022-11-24T02:29:12.244Z,6.60
2022-11-24T02:31:40.127Z,6.60
2022-11-24T02:34:06.795Z,6.60
2022-11-24T02:36:33.542Z,6.60
2022-11-24T02:39:00.217Z,6.60
2022-11-24T02:41:26.948Z,6.60
2022-11-24T02:43:55.009Z,6.50
2022-11-24T02:46:21.901Z,6.40
2022-11-24T02:48:48.611Z,6.50
2022-11-24T02:51:15.316Z,6.50
2022-11-24T02:53:42.023Z,6.50
2022-11-24T02:56:08.753Z,6.50
2022-11-24T02:58:35.445Z,6.60
2022-11-24T03:01:02.119Z,6.60
2022-11-24T03:03:28.819Z,6.60
2022-11-24T03:05:55.539Z,6.70
2022-11-24T03:08:22.207Z,6.70
2022-11-24T03:10:49.309Z,6.70
2022-11-24T03:13:16.082Z,6.80
2022-11-24T03:15:42.906Z,6.80
2022-11-24T03:18:09.837Z,6.80
2022-11-24T03:20:36.537Z,6.80
2022-11-24T03:23:03.384Z,6.80
2022-11-24T03:25:30.460Z,6.80
2022-11-24T03:27:58.197Z,6.80
2022-11-24T03:30:24.925Z,6.80
2022-11-24T03:32:52.739Z,6.70
2022-11-24T03:35:20.096Z,6.60
2022-11-24T03:37:46.824Z,6.60
2022-11-24T03:40:13.559Z,6.60
2022-11-24T03:42:40.399Z,6.60
2022-11-24T03:47:53.929Z,6.60
2022-11-24T03:50:20.639Z,6.50
2022-11-24T03:52:47.295Z,6.40
2022-11-24T03:55:14.091Z,6.20
2022-11-24T03:57:40.765Z,6.10
2022-11-24T04:00:08.099Z,6.00
2022-11-24T04:02:34.804Z,5.90
2022-11-24T04:05:01.527Z,5.80
2022-11-24T04:07:28.315Z,5.80
2022-11-24T04:09:55.006Z,5.80
2022-11-24T04:12:40.508Z,5.80
2022-11-24T04:15:07.375Z,5.70
2022-11-24T04:17:34.056Z,5.60
2022-11-24T04:20:00.804Z,5.50
2022-11-24T04:22:27.491Z,5.40
2022-11-24T04:24:54.199Z,5.50
2022-11-24T04:27:20.904Z,5.50
2022-11-24T04:29:47.605Z,5.40
2022-11-24T04:32:14.341Z,5.40
2022-11-24T04:34:41.037Z,5.40
2022-11-24T04:37:07.699Z,5.40
2022-11-24T04:39:34.350Z,5.30
2022-11-24T04:42:01.047Z,5.30
2022-11-24T04:44:27.787Z,5.30
2022-11-24T04:46:54.595Z,5.30
2022-11-24T04:49:21.321Z,5.30
2022-11-24T04:51:47.991Z,5.30
2022-11-24T04:54:14.735Z,5.30
2022-11-24T04:56:41.657Z,5.30
2022-11-24T04:59:08.809Z,5.30
2022-11-24T05:01:35.844Z,5.30
2022-11-24T05:04:02.662Z,5.30
2022-11-24T05:06:29.486Z,5.30
2022-11-24T05:08:56.226Z,5.20
2022-11-24T05:11:22.896Z,5.20
2022-11-24T05:13:49.600Z,5.20
2022-11-24T05:16:16.480Z,5.20
2022-11-24T05:18:43.328Z,5.20
2022-11-24T05:21:09.990Z,5.10
2022-11-24T05:23:36.663Z,5.10
2022-11-24T05:26:03.369Z,5.10
2022-11-24T05:28:30.082Z,5.10
2022-11-24T05:31:03.029Z,5.10
2022-11-24T05:33:30.141Z,5.10
2022-11-24T05:36:00.120Z,5.00
2022-11-24T05:38:26.976Z,5.00
2022-11-24T05:40:53.723Z,4.90
2022-11-24T05:43:20.475Z,4.90
2022-11-24T05:45:47.258Z,4.80
2022-11-24T05:48:14.348Z,4.70
2022-11-24T05:50:41.065Z,4.80
2022-11-24T05:53:08.590Z,4.80
2022-11-24T05:55:35.409Z,4.70
2022-11-24T05:58:02.744Z,4.70
2022-11-24T06:00:29.482Z,4.70
2022-11-24T06:02:59.506Z,4.80
2022-11-24T06:05:27.267Z,4.70
2022-11-24T06:07:54.080Z,4.80
2022-11-24T06:10:21.530Z,4.80
2022-11-24T06:12:48.190Z,4.80
2022-11-24T06:15:14.918Z,4.90
2022-11-24T06:17:41.690Z,4.90
2022-11-24T06:20:09.313Z,5.00
2022-11-24T06:22:36.131Z,5.00
2022-11-24T06:25:03.126Z,5.10
2022-11-24T06:27:29.808Z,5.50
2022-11-24T06:29:56.506Z,6.30
2022-11-24T06:32:24.190Z,7.30
2022-11-24T06:34:50.934Z,8.30
2022-11-24T06:37:17.773Z,9.30
2022-11-24T06:39:44.478Z,10.10
2022-11-24T06:42:11.250Z,10.80
2022-11-24T06:44:38.034Z,11.50
2022-11-24T06:47:04.927Z,12.20
2022-11-24T06:49:31.624Z,12.70
2022-11-24T06:51:58.382Z,13.20
2022-11-24T06:54:25.114Z,13.40
2022-11-24T06:56:55.842Z,13.80
2022-11-24T06:59:22.597Z,14.30
2022-11-24T07:01:49.280Z,14.60
2022-11-24T07:04:16.133Z,14.50
2022-11-24T07:06:42.904Z,14.60
2022-11-24T07:09:10.104Z,14.80
2022-11-24T07:11:36.923Z,14.90
2022-11-24T07:14:03.809Z,14.90
2022-11-24T07:16:30.690Z,14.40
2022-11-24T07:18:57.615Z,14.50
2022-11-24T07:21:24.639Z,14.90
2022-11-24T07:23:54.626Z,15.20
2022-11-24T07:26:21.319Z,15.40
2022-11-24T07:28:48.045Z,15.30
2022-11-24T07:31:15.606Z,15.20
2022-11-24T07:33:42.345Z,15.30
2022-11-24T07:36:09.198Z,15.40
2022-11-24T07:38:35.991Z,15.20
2022-11-24T07:41:06.517Z,15.70
2022-11-24T07:43:33.504Z,15.60
2022-11-24T07:46:00.389Z,15.30
2022-11-24T07:48:27.236Z,15.60
2022-11-24T07:50:55.963Z,16.20
2022-11-24T07:53:23.222Z,16.50
2022-11-24T07:55:56.533Z,16.40
2022-11-24T07:58:24.118Z,17.00
2022-11-24T08:00:53.213Z,16.90
2022-11-24T08:03:19.979Z,16.10
2022-11-24T08:06:24.495Z,15.10
2022-11-24T08:08:43.132Z,14.40
2022-11-24T08:11:10.706Z,14.10
2022-11-24T08:13:37.369Z,14.20
2022-11-24T08:16:10.948Z,14.80
2022-11-24T08:18:37.822Z,15.40
2022-11-24T08:21:04.994Z,15.20
2022-11-24T08:23:31.729Z,14.60
2022-11-24T08:26:03.434Z,14.00
2022-11-24T08:28:30.264Z,13.30
2022-11-24T08:31:03.819Z,12.90
2022-11-24T08:33:31.098Z,12.50
2022-11-24T08:36:02.441Z,12.20
2022-11-24T08:38:29.148Z,11.90
2022-11-24T08:40:59.544Z,11.90
2022-11-24T08:43:26.269Z,12.00
2022-11-24T08:45:53.044Z,11.90
2022-11-24T08:48:19.850Z,11.70
2022-11-24T08:50:46.542Z,11.50
2022-11-24T08:53:13.260Z,11.30
2022-11-24T08:55:39.962Z,11.20
2022-11-24T08:58:06.672Z,11.10
2022-11-24T09:00:33.364Z,11.00
2022-11-24T09:03:00.111Z,10.80
2022-11-24T09:05:51.217Z,10.70
2022-11-24T09:08:13.612Z,10.70
2022-11-24T09:10:40.388Z,10.70
2022-11-24T09:13:07.073Z,10.70
2022-11-24T09:15:35.135Z,10.60
2022-11-24T09:18:01.864Z,10.60
2022-11-24T09:20:28.549Z,10.60
2022-11-24T09:22:56.801Z,10.60
2022-11-24T09:25:26.227Z,10.60
2022-11-24T09:27:53.674Z,10.70
2022-11-24T09:30:20.785Z,10.90
2022-11-24T09:32:47.576Z,11.20
2022-11-24T09:35:14.611Z,11.30
2022-11-24T09:37:43.371Z,11.40
2022-11-24T09:40:12.082Z,11.40
2022-11-24T09:42:53.397Z,11.40
2022-11-24T09:45:57.036Z,11.30
2022-11-24T09:48:21.477Z,11.20
2022-11-24T09:50:48.566Z,11.10
2022-11-24T09:53:25.825Z,11.20
2022-11-24T09:55:54.141Z,11.20
2022-11-24T09:58:29.953Z,11.40
2022-11-24T10:00:56.798Z,11.60
2022-11-24T10:03:26.455Z,11.60
2022-11-24T10:05:53.202Z,11.60
2022-11-24T10:08:40.189Z,11.60
2022-11-24T10:11:12.477Z,11.70
2022-11-24T10:13:39.193Z,11.70
2022-11-24T10:16:24.095Z,11.60
2022-11-24T10:18:59.728Z,11.50
2022-11-24T10:21:31.017Z,11.50
2022-11-24T10:23:57.708Z,11.60
2022-11-24T10:26:30.431Z,11.80
2022-11-24T10:28:57.429Z,12.10
2022-11-24T10:31:34.600Z,12.30
2022-11-24T10:34:09.894Z,12.40
2022-11-24T10:36:56.989Z,12.50
2022-11-24T10:39:28.345Z,12.50
2022-11-24T10:41:59.283Z,12.80
2022-11-24T10:44:25.983Z,12.90
2022-11-24T10:46:54.625Z,13.10
2022-11-24T10:49:25.203Z,13.40
2022-11-24T10:51:55.016Z,14.20
2022-11-24T10:54:22.361Z,15.20
2022-11-24T10:56:50.616Z,16.20
2022-11-24T10:59:37.121Z,17.10
2022-11-24T11:02:24.063Z,17.60
2022-11-24T11:04:50.781Z,18.10
2022-11-24T11:07:18.857Z,18.00
2022-11-24T11:09:45.899Z,17.30
2022-11-24T11:15:36.228Z,16.30
2022-11-24T11:18:02.955Z,16.00
2022-11-24T11:20:30.769Z,15.90
2022-11-24T11:22:57.834Z,16.20
2022-11-24T11:25:25.920Z,17.10
2022-11-24T11:27:52.776Z,17.70
2022-11-24T11:36:08.619Z,18.20
2022-11-24T11:38:35.688Z,17.70
2022-11-24T11:41:02.408Z,17.30
2022-11-24T11:43:31.001Z,16.80
2022-11-24T11:46:05.258Z,16.20
2022-11-24T11:48:43.062Z,15.90
2022-11-24T11:51:25.583Z,15.80
2022-11-24T11:53:58.576Z,15.90
2022-11-24T11:56:26.235Z,15.90
2022-11-24T11:59:02.092Z,15.90
2022-11-24T12:01:31.724Z,15.90
2022-11-24T12:04:17.421Z,15.80
2022-11-24T12:07:13.785Z,15.70
2022-11-24T12:09:43.336Z,15.70
2022-11-24T12:12:10.137Z,15.60
2022-11-24T12:14:42.827Z,15.50
2022-11-24T12:17:28.219Z,15.40
2022-11-24T12:20:07.522Z,15.50
2022-11-24T12:22:34.235Z,15.50
2022-11-24T12:25:19.569Z,15.60
2022-11-24T12:27:55.346Z,15.60
2022-11-24T12:30:22.131Z,15.50
2022-11-24T12:33:05.139Z,15.50
2022-11-24T12:35:37.939Z,15.40
2022-11-24T12:38:04.678Z,15.30
2022-11-24T12:40:40.887Z,15.20
2022-11-24T12:43:17.702Z,15.00
2022-11-24T12:45:48.202Z,14.80
2022-11-24T12:48:29.917Z,14.60
2022-11-24T12:50:56.602Z,14.50
2022-11-24T12:53:30.858Z,14.50
2022-11-24T12:56:04.975Z,14.50
2022-11-24T12:58:45.819Z,14.60
2022-11-24T13:01:24.014Z,14.70
2022-11-24T13:03:50.953Z,14.70
2022-11-24T13:06:17.644Z,14.90
2022-11-24T13:08:44.336Z,15.00
2022-11-24T13:11:23.355Z,15.00
2022-11-24T13:14:08.758Z,14.90
2022-11-24T13:16:40.825Z,14.90
2022-11-24T13:19:15.757Z,14.80
2022-11-24T13:21:50.990Z,14.80
2022-11-24T13:24:18.868Z,14.80
2022-11-24T13:26:50.492Z,14.80
2022-11-24T13:29:29.453Z,14.80
2022-11-24T13:32:17.704Z,14.70
2022-11-24T13:34:45.751Z,14.70
2022-11-24T13:37:28.928Z,14.70
2022-11-24T13:40:13.573Z,14.60
2022-11-24T13:42:56.272Z,14.50
2022-11-24T13:45:49.214Z,14.40
2022-11-24T13:48:18.797Z,14.30
2022-11-24T13:50:52.011Z,14.10
2022-11-24T13:53:27.986Z,14.00
2022-11-24T13:56:20.292Z,13.80
2022-11-24T13:58:50.465Z,13.70
2022-11-24T14:01:20.752Z,13.70
2022-11-24T14:04:27.987Z,13.70
2022-11-24T14:06:44.154Z,13.70
2022-11-24T14:09:19.520Z,13.70
2022-11-24T14:11:46.980Z,13.70
2022-11-24T14:14:17.525Z,13.70
2022-11-24T14:16:46.105Z,13.60
2022-11-24T14:19:17.542Z,13.50
2022-11-24T14:21:45.210Z,13.50
2022-11-24T14:24:12.710Z,13.50
2022-11-24T14:26:39.721Z,13.40
2022-11-24T14:29:16.217Z,13.40
2022-11-24T14:31:43.723Z,13.40
2022-11-24T14:34:17.256Z,13.40
2022-11-24T14:36:44.024Z,13.40
2022-11-24T14:39:14.317Z,13.50
2022-11-24T14:41:41.897Z,13.50
2022-11-24T14:44:11.652Z,13.40
2022-11-24T14:46:38.429Z,13.30
2022-11-24T14:49:05.130Z,13.20
2022-11-24T14:51:32.772Z,13.10
2022-11-24T14:54:03.794Z,13.10
2022-11-24T14:56:36.987Z,13.10
2022-11-24T14:59:03.846Z,13.10
2022-11-24T15:01:32.809Z,13.00
2022-11-24T15:04:15.205Z,12.90
2022-11-24T15:07:02.772Z,12.80
2022-11-24T15:09:34.332Z,12.80
2022-11-24T15:12:08.049Z,12.60
2022-11-24T15:14:40.638Z,12.50
2022-11-24T15:17:07.416Z,12.40
2022-11-24T15:19:34.503Z,12.40
2022-11-24T15:22:01.247Z,12.20
2022-11-24T15:24:28.017Z,12.10
2022-11-24T15:27:01.126Z,12.00
2022-11-24T15:29:27.822Z,12.00
2022-11-24T15:31:54.609Z,11.90
2022-11-24T15:34:21.535Z,11.90
2022-11-24T15:36:48.258Z,11.70
2022-11-24T15:39:14.955Z,11.60
2022-11-24T15:41:42.184Z,11.50
2022-11-24T15:44:08.897Z,11.40
2022-11-24T15:46:38.551Z,11.30
2022-11-24T15:49:05.673Z,11.20
2022-11-24T15:51:32.342Z,11.20
2022-11-24T15:54:01.397Z,11.10
2022-11-24T15:56:32.508Z,10.90
2022-11-24T15:58:59.460Z,10.80
2022-11-24T16:01:27.803Z,10.70
2022-11-24T16:03:54.508Z,10.70
2022-11-24T16:06:24.983Z,10.70
2022-11-24T16:08:52.675Z,10.60
2022-11-24T16:11:19.440Z,10.60
2022-11-24T16:13:51.804Z,10.60
2022-11-24T16:16:19.501Z,10.60
2022-11-24T16:18:46.397Z,10.50
2022-11-24T16:21:13.135Z,10.40
2022-11-24T16:23:40.071Z,10.30
2022-11-24T16:26:06.776Z,10.20
2022-11-24T16:28:33.436Z,10.10
2022-11-24T16:31:00.125Z,10.10
2022-11-24T16:33:28.228Z,10.10
2022-11-24T16:35:54.928Z,10.00
2022-11-24T16:38:21.744Z,10.00
2022-11-24T16:40:52.123Z,9.90
2022-11-24T16:43:18.910Z,9.90
2022-11-24T16:45:45.888Z,9.90
2022-11-24T16:48:12.715Z,9.90
2022-11-24T16:50:39.471Z,9.90
2022-11-24T16:53:06.191Z,9.80
2022-11-24T16:55:32.881Z,9.80
2022-11-24T16:57:59.549Z,9.80
2022-11-24T17:00:26.309Z,9.70
2022-11-24T17:02:53.049Z,9.70
2022-11-24T17:05:19.785Z,9.70
2022-11-24T17:07:46.569Z,9.60
2022-11-24T17:10:13.321Z,9.70
2022-11-24T17:12:40.909Z,9.70
2022-11-24T17:15:31.722Z,9.70
2022-11-24T17:18:22.977Z,9.70
2022-11-24T17:20:41.260Z,9.70
2022-11-24T17:23:07.969Z,9.60
2022-11-24T17:25:34.655Z,9.60
2022-11-24T17:28:01.382Z,9.70
2022-11-24T17:30:28.108Z,9.70
2022-11-24T17:32:56.943Z,9.70
2022-11-24T17:35:23.819Z,9.70
2022-11-24T17:37:50.513Z,9.60
2022-11-24T17:40:34.544Z,9.50
2022-11-24T17:43:01.326Z,9.40
2022-11-24T17:45:28.449Z,9.30
2022-11-24T17:47:56.261Z,9.30
2022-11-24T17:50:26.138Z,9.20
2022-11-24T17:52:53.637Z,9.10
2022-11-24T17:55:20.424Z,9.00
2022-11-24T17:57:47.115Z,8.90
2022-11-24T18:00:14.111Z,8.70
2022-11-24T18:02:40.887Z,8.70
2022-11-24T18:05:07.877Z,8.80
2022-11-24T18:07:37.401Z,8.70
2022-11-24T18:10:04.312Z,8.70
2022-11-24T18:12:31.025Z,8.70
2022-11-24T18:14:57.750Z,8.70
2022-11-24T18:17:24.589Z,8.70
2022-11-24T18:19:51.241Z,8.70
2022-11-24T18:22:21.033Z,8.70
2022-11-24T18:24:53.915Z,8.60
2022-11-24T18:27:20.620Z,8.50
2022-11-24T18:29:50.871Z,8.50
2022-11-24T18:32:20.129Z,8.50
2022-11-24T18:34:46.829Z,8.40
2022-11-24T18:37:14.911Z,8.30
2022-11-24T18:39:42.405Z,8.30
2022-11-24T18:42:09.531Z,8.20
2022-11-24T18:44:36.692Z,8.20
2022-11-24T18:47:03.682Z,8.10
2022-11-24T18:49:31.969Z,8.10
2022-11-24T18:51:58.832Z,8.10
2022-11-24T18:54:27.334Z,8.10
2022-11-24T18:56:56.690Z,8.10
2022-11-24T18:59:26.939Z,8.10
2022-11-24T19:01:53.803Z,8.10
2022-11-24T19:04:20.599Z,8.00
2022-11-24T19:06:47.316Z,8.00
2022-11-24T19:09:15.115Z,7.90
2022-11-24T19:11:43.123Z,7.90
2022-11-24T19:14:11.089Z,7.90
2022-11-24T19:16:37.824Z,8.00
2022-11-24T19:19:04.533Z,8.10
2022-11-24T19:21:31.683Z,8.10
2022-11-24T19:24:04.252Z,8.10
2022-11-24T19:26:31.882Z,8.00
2022-11-24T19:28:58.586Z,8.00
2022-11-24T19:31:25.307Z,8.00
2022-11-24T19:33:54.168Z,8.00
2022-11-24T19:36:21.504Z,7.90
2022-11-24T19:38:51.513Z,7.80
2022-11-24T19:41:19.710Z,7.80
2022-11-24T19:43:47.075Z,7.80
2022-11-24T19:46:14.587Z,7.90
2022-11-24T19:48:44.967Z,8.00
2022-11-24T19:51:12.369Z,8.00
2022-11-24T19:53:39.051Z,8.10
2022-11-24T19:56:06.297Z,8.10
2022-11-24T19:58:33.147Z,8.10
2022-11-24T20:01:32.256Z,8.00
2022-11-24T20:03:59.986Z,8.00
2022-11-24T20:06:27.982Z,7.90
2022-11-24T20:08:54.942Z,7.90
2022-11-24T20:11:21.774Z,7.90
2022-11-24T20:13:49.792Z,7.90
2022-11-24T20:16:17.586Z,7.90
2022-11-24T20:18:44.866Z,7.80
2022-11-24T20:21:11.572Z,7.70
2022-11-24T20:23:38.516Z,7.60
2022-11-24T20:26:05.883Z,7.60
2022-11-24T20:28:32.654Z,7.60
2022-11-24T20:31:09.591Z,7.60
2022-11-24T20:33:36.410Z,7.50
2022-11-24T20:36:13.134Z,7.60
2022-11-24T20:38:39.982Z,7.50
2022-11-24T20:41:13.693Z,7.50
2022-11-24T20:43:40.494Z,7.50
2022-11-24T20:46:08.157Z,7.50
2022-11-24T20:48:34.915Z,7.40
2022-11-24T20:51:05.271Z,7.40
2022-11-24T20:53:31.977Z,7.30
2022-11-24T20:56:06.342Z,7.30
2022-11-24T20:58:33.898Z,7.20
2022-11-24T21:01:07.701Z,7.20
2022-11-24T21:03:37.247Z,7.10
2022-11-24T21:06:08.116Z,7.10
2022-11-24T21:08:35.351Z,7.10
2022-11-24T21:11:02.279Z,7.10
2022-11-24T21:13:32.310Z,7.10
2022-11-24T21:15:59.017Z,7.00
2022-11-24T21:18:25.806Z,7.00
2022-11-24T21:20:52.530Z,7.00
2022-11-24T21:23:20.613Z,7.00
2022-11-24T21:25:47.275Z,6.90
2022-11-24T21:28:14.029Z,7.00
2022-11-24T21:30:40.711Z,7.00
2022-11-24T21:33:07.952Z,7.00
2022-11-24T21:35:35.315Z,7.00
2022-11-24T21:38:02.205Z,7.00
2022-11-24T21:40:29.046Z,7.00
2022-11-24T21:42:57.609Z,7.10
2022-11-24T21:45:24.344Z,7.00
2022-11-24T21:47:51.074Z,6.90
2022-11-24T21:50:17.850Z,6.90
2022-11-24T21:52:44.545Z,6.80
2022-11-24T21:55:11.273Z,6.80
2022-11-24T21:57:38.542Z,6.80
2022-11-24T22:00:05.810Z,6.70
2022-11-24T22:02:32.788Z,6.70
2022-11-24T22:04:59.523Z,6.70
2022-11-24T22:07:26.238Z,6.70
2022-11-24T22:09:52.968Z,6.70
2022-11-24T22:12:19.694Z,6.70
2022-11-24T22:14:46.473Z,6.70
2022-11-24T22:17:14.629Z,6.70
2022-11-24T22:19:41.291Z,6.60
2022-11-24T22:22:08.193Z,6.60
2022-11-24T22:24:34.881Z,6.70
2022-11-24T22:27:02.986Z,6.70
2022-11-24T22:29:29.721Z,6.80
2022-11-24T22:31:56.485Z,6.80
2022-11-24T22:34:23.289Z,6.90
2022-11-24T22:36:50.061Z,7.00
2022-11-24T22:39:16.777Z,7.10
2022-11-24T22:41:43.499Z,7.10
2022-11-24T22:44:10.151Z,7.20
2022-11-24T22:46:36.841Z,7.20
2022-11-24T22:49:03.551Z,7.20
2022-11-24T22:51:31.470Z,7.10
2022-11-24T22:53:59.070Z,7.10
2022-11-24T22:56:27.884Z,7.10
2022-11-24T22:58:54.628Z,7.10
2022-11-24T23:01:22.003Z,7.10
2022-11-24T23:03:49.039Z,7.10
2022-11-24T23:06:16.762Z,7.10
2022-11-24T23:08:43.500Z,7.10
2022-11-24T23:11:11.074Z,7.20
2022-11-24T23:13:37.789Z,7.10
2022-11-24T23:16:11.259Z,7.20
2022-11-24T23:18:38.051Z,7.20
2022-11-24T23:21:08.488Z,7.20
2022-11-24T23:23:35.244Z,7.10
2022-11-24T23:26:02.639Z,7.10
2022-11-24T23:28:29.455Z,7.20
2022-11-24T23:31:02.813Z,7.20
2022-11-24T23:33:29.779Z,7.20
2022-11-24T23:35:56.461Z,7.30
2022-11-24T23:38:28.565Z,7.20
2022-11-24T23:40:56.508Z,7.20
2022-11-24T23:43:23.201Z,7.20
2022-11-24T23:45:50.013Z,7.10
2022-11-24T23:48:16.782Z,7.00
2022-11-24T23:50:43.619Z,7.00
2022-11-24T23:53:10.306Z,6.90
2022-11-24T23:55:36.977Z,6.80
2022-11-24T23:58:03.911Z,6.80
